Terminal Aerodrome Forecast
Issued by NWS

Home | Current Version | Previous Version | Text Only | Print | Product List | Glossary On
Versions: 1 2 3 4 5 6 7 8 9 10 11 12 13
085
FTUS42 KTAE 221723
TAFVLD
TAF
KVLD 221723Z 2218/2318 12012G18KT P6SM SCT025 OVC030
     FM222100 12012G20KT 5SM -TSRA SCT007 BKN025CB
     FM230800 11008KT 6SM RA OVC007
     FM231600 20010KT P6SM SCT025 BKN035=

USA.gov is the U.S. government's official web portal to all federal, state and local government web resources and services.